SPECI KINT 200001Z 23003KT 3SM -SN OVC005 01/ A3013 RMK AO2 CIG 003V007 P0000 $ 
METAR KINT 192354Z 00000KT 1SM -SN OVC005 01/ A3013 RMK AO2 CIG 003V008 SLP210 P0000 60013 T0006 10011 20000 55001 $ 
SPECI KINT 192330Z 00000KT 1SM -SN OVC005 01/ A3012 RMK AO2 CIG 003V008 P0000 $ 
SPECI KINT 192301Z 00000KT 1SM -SN OVC003 01/ A3011 RMK AO2 P0000 $ 
METAR KINT 192254Z 00000KT 1/2SM -SN OVC003 01/ A3011 RMK AO2 SLP203 P0000 T0006 $ 
SPECI KINT 192243Z 00000KT 1/2SM -SN OVC003 01/ A3012 RMK AO2 CIG 001V007 P0000 $ 
SPECI KINT 192157Z 00000KT 1/2SM -SN BKN001 OVC005 01/ A3010 RMK AO2 P0000 $ 
METAR KINT 192154Z 00000KT 1/4SM -SN OVC003 01/ A3009 RMK AO2 SLP198 P0002 T0006 $ 
SPECI KINT 192107Z 00000KT 1/4SM -SN BKN001 OVC012 01/ A3011 RMK AO2 P0001 $ 
METAR KINT 192054Z 00000KT 1/2SM -SN BKN003 OVC012 01/ A3013 RMK AO2 SLP211 P0004 60011 T0006 55003 $ 
SPECI KINT 192042Z 00000KT 1/2SM -SN BKN003 OVC012 01/ A3014 RMK AO2 P0004 $ 
SPECI KINT 192026Z 00000KT 1/2SM -SN BKN001 OVC015 01/ A3014 RMK AO2 P0003 $ 
METAR KINT 191954Z 00000KT 1/4SM -SN OVC001 01/ A3012 RMK AO2 SLP208 P0004 T0006 $ 
SPECI KINT 191916Z 00000KT 3/4SM -SN OVC001 01/ A3014 RMK AO2 P0001 $ 
SPECI KINT 191908Z 00000KT 1SM -SN OVC003 01/ A3015 RMK AO2 P0001 $ 
METAR KINT 191854Z 00000KT 3/4SM -SN OVC003 01/ A3013 RMK AO2 SLP211 P0003 T0006 $ 
SPECI KINT 191844Z 00000KT 3/4SM -SN OVC003 01/ A3013 RMK AO2 P0003 $ 
METAR KINT 191754Z 00000KT 1/2SM -SN OVC001 01/ A3014 RMK AO2 SLP214 P0002 60003 T0006 10044 20006 58024 $ 
SPECI KINT 191739Z 00000KT 3/4SM -SN OVC004 01/ A3017 RMK AO2 P0002 $ 
SPECI KINT 191701Z 00000KT 1 1/4SM -SN BR OVC005 01/01 A3018 RMK AO2 P0000 
METAR KINT 191654Z 00000KT 2SM -SN BR OVC005 01/01 A3018 RMK AO2 PRESFR SLP229 P0001 T00110011 
SPECI KINT 191629Z 05005KT 2SM -SN BR OVC009 02/01 A3020 RMK AO2 P0000 
SPECI KINT 191616Z 06005KT 2SM -SN OVC017 03/01 A3021 RMK AO2 P0000 
METAR KINT 191554Z 03004KT 8SM -SN OVC025 04/00 A3023 RMK AO2 SNB53 SLP243 P0000 T00390000 
METAR KINT 191454Z 01004KT 10SM BKN032 BKN070 04/M01 A3021 RMK AO2 SLP238 T00441011 53020 
METAR KINT 191354Z 35003KT 9SM BKN050 OVC065 04/00 A3020 RMK AO2 SLP234 T00390000 
METAR KINT 191254Z 00000KT 8SM OVC065 03/01 A3015 RMK AO2 SLP217 T00280011 
METAR KINT 191154Z 00000KT 9SM OVC075 03/01 A3015 RMK AO2 SLP217 T00280011 10039 20028 58002 
METAR KINT 191054Z AUTO 00000KT 9SM BKN075 OVC085 03/01 A3016 RMK AO2 SLP221 T00330006 TSNO 
METAR KINT 190954Z AUTO 00000KT 10SM SCT090 04/01 A3015 RMK AO2 SLP217 T00390006 TSNO 
METAR KINT 190854Z AUTO 21003KT 10SM CLR 03/00 A3016 RMK AO2 SLP218 T00330000 58002 TSNO 
METAR KINT 190754Z AUTO 28004KT 10SM BKN090 03/00 A3020 RMK AO2 SLP232 T00330000 TSNO 
METAR KINT 190654Z AUTO 17003KT 10SM CLR 03/M01 A3015 RMK AO2 SLP215 T00331006 TSNO 
METAR KINT 190554Z AUTO 00000KT 10SM CLR 03/M01 A3016 RMK AO2 SLP221 T00331006 10039 20033 53001 TSNO 
METAR KINT 190554Z AUTO 00000KT 10SM CLR 03/M01 A3016 RMK AO2 SLP221 T00331006 10039 20033 53001 TSNO 
METAR KINT 190454Z AUTO 26003KT 10SM CLR 03/M01 A3013 RMK AO2 SLP209 T00331011 400441022 TSNO 
METAR KINT 190354Z AUTO 27004KT 10SM CLR 03/01 A3015 RMK AO2 SLP217 T00330006 TSNO 
METAR KINT 190254Z AUTO 25004KT 10SM CLR 03/00 A3016 RMK AO2 SLP221 T00330000 58005 TSNO 
METAR KINT 190154Z VRB03KT 10SM CLR 03/M01 A3015 RMK AO2 PRESFR SLP217 T00331006 
METAR KINT 190054Z 25005KT 10SM CLR 04/M01 A3019 RMK AO2 SLP233 T00391006 
METAR KINT 182354Z VRB04KT 10SM BKN090 04/M01 A3017 RMK AO2 SLP227 T00391011 10044 20033 55003 
METAR KINT 182254Z 23005KT 10SM CLR 04/M02 A3016 RMK AO2 SLP222 T00391017 
METAR KINT 182154Z 23006KT 10SM CLR 04/M02 A3015 RMK AO2 PRESFR SLP218 T00391022 
METAR KINT 182054Z 23005KT 10SM CLR 04/M02 A3018 RMK AO2 SLP230 T00391022 55005 
METAR KINT 181954Z 23004KT 10SM CLR 04/M03 A3018 RMK AO2 SLP228 T00391028 
METAR KINT 181854Z 25006KT 10SM CLR 04/M03 A3020 RMK AO2 SLP235 T00441033 
METAR KINT 181754Z 00000KT 10SM CLR 04/M04 A3020 RMK AO2 SLP234 T00391039 10039 21022 58027 
METAR KINT 181654Z 00000KT 10SM CLR 03/M04 A3023 RMK AO2 SLP245 T00281039 
METAR KINT 181554Z 00000KT 10SM CLR 02/M04 A3027 RMK AO2 SLP259 T00221044 
METAR KINT 181454Z 06004KT 10SM CLR 02/M03 A3028 RMK AO2 SLP261 T00171033 51013 
METAR KINT 181354Z 04004KT 10SM CLR 01/M04 A3027 RMK AO2 SLP259 T00061039 
METAR KINT 181254Z 02003KT 10SM CLR M01/M04 A3026 RMK AO2 SLP253 T10061039 
METAR KINT 181154Z 01004KT 10SM CLR M02/M04 A3024 RMK AO2 SLP248 T10221044 10006 21022 53015 
METAR KINT 181054Z 04003KT 10SM CLR M01/M05 A3022 RMK AO2 SLP241 T10111050 
METAR KINT 180954Z 01005KT 10SM CLR M01/M04 A3021 RMK AO2 SLP235 T10111044 
METAR KINT 180854Z 01007KT 10SM CLR M01/M04 A3020 RMK AO2 SLP232 T10111044 51009 
METAR KINT 180754Z 00000KT 10SM CLR 00/M04 A3020 RMK AO2 SLP230 T00001044 
METAR KINT 180654Z 35004KT 10SM CLR 00/M04 A3018 RMK AO2 SLP225 T00001044 
METAR KINT 180554Z 04004KT 10SM CLR 00/M04 A3017 RMK AO2 SLP221 T00001044 10089 20000 51016 
METAR KINT 180454Z 34006KT 10SM CLR 02/M04 A3016 RMK AO2 SLP217 T00221044 401280022 
METAR KINT 180354Z 35008KT 10SM CLR 03/M03 A3014 RMK AO2 SLP208 T00331033 
METAR KINT 180254Z 35005KT 10SM CLR 04/M03 A3012 RMK AO2 SLP205 T00441033 53036 
METAR KINT 180154Z 33007KT 10SM CLR 06/M03 A3008 RMK AO2 SLP191 T00561033 
METAR KINT 180054Z 33007KT 10SM CLR 07/M03 A3004 RMK AO2 SLP177 T00671028 
METAR KINT 172354Z 32007KT 10SM CLR 09/M01 A3001 RMK AO2 SLP167 T00891011 10128 20089 53033 
METAR KINT 172254Z 30006KT 10SM CLR 09/M01 A2997 RMK AO2 SLP152 T00941011 
METAR KINT 172154Z 30009G17KT 10SM CLR 11/M03 A2995 RMK AO2 SLP145 T01061028 
METAR KINT 172054Z 30010KT 10SM CLR 12/M03 A2991 RMK AO2 SLP132 T01171028 53010 
METAR KINT 171954Z 26008KT 10SM CLR 12/02 A2989 RMK AO2 SLP123 T01220022 
METAR KINT 171854Z 28007G15KT 10SM CLR 13/02 A2989 RMK AO2 SLP123 T01280022 
METAR KINT 171754Z 26014G17KT 10SM FEW044 12/02 A2988 RMK AO2 SLP122 T01220022 10122 20067 58006 
METAR KINT 171654Z 29008KT 10SM CLR 11/07 A2989 RMK AO2 SLP124 T01110067 
METAR KINT 171554Z VRB04KT 8SM CLR 11/08 A2990 RMK AO2 SLP129 T01060078 
SPECI KINT 171524Z VRB03KT 4SM BR SCT007 09/08 A2991 RMK AO2 
METAR KINT 171454Z 00000KT 3SM BR OVC005 08/08 A2990 RMK AO2 CIG 005V010 SLP129 T00830083 51009 
METAR KINT 171454Z 00000KT 3SM BR OVC005 08/08 A2990 RMK AO2 CIG 005V010 SLP129 T00830083 51009 
SPECI KINT 171427Z VRB03KT 2 1/2SM BR OVC005 08/08 A2991 RMK AO2 
METAR KINT 171354Z 25004KT 2SM BR OVC003 07/07 A2990 RMK AO2 SLP129 T00720072 
SPECI KINT 171317Z 25003KT 2SM BR OVC003 07/07 A2991 RMK AO2 CIG 002V006 
METAR KINT 171254Z 00000KT 1 3/4SM BR OVC003 07/07 A2989 RMK AO2 SLP124 T00720072 
SPECI KINT 171223Z 27003KT 1 3/4SM BR OVC003 07/07 A2988 RMK AO2 
SPECI KINT 171205Z VRB03KT 2 1/2SM BR OVC003 07/07 A2988 RMK AO2 
METAR KINT 171154Z 25004KT 3SM BR OVC003 07/07 A2987 RMK AO2 SLP119 P0001 60012 70019 T00670067 10067 20061 50007 
METAR KINT 171054Z 25005KT 3SM BR OVC003 07/07 A2987 RMK AO2 RAE00 SLP120 P0000 T00670067 
METAR KINT 170954Z 22004KT 4SM -RA BR OVC005 07/07 A2987 RMK AO2 SLP118 P0001 T00670067 
METAR KINT 170854Z VRB04KT 4SM -RA BR OVC005 07/07 A2985 RMK AO2 CIG 003V008 SLP111 P0001 60010 T00670067 56010 
METAR KINT 170754Z 22004KT 4SM -RA BR OVC005 07/07 A2985 RMK AO2 RAE09B30 CIG 003V009 SLP113 P0000 T00670067 
METAR KINT 170654Z 23005KT 3SM -RA BR OVC005 06/06 A2988 RMK AO2 RAB0557 SLP120 P0009 T00610061 
SPECI KINT 170637Z VRB05KT 2SM -RA BR BKN005 BKN009 OVC029 06/06 A2987 RMK AO2 RAB0557 CIG 002V007 P0005 
SPECI KINT 170623Z 25004KT 2SM -RA BR FEW007 BKN011 OVC029 07/07 A2988 RMK AO2 RAB0557 P0004 
SPECI KINT 170616Z 24007KT 1 3/4SM RA BR BKN011 OVC027 07/07 A2988 RMK AO2 RAB0557 P0004 
SPECI KINT 170606Z 25006KT 3SM -RA BR FEW008 BKN011 OVC027 07/07 A2989 RMK AO2 RAB0557 P0001 
METAR KINT 170554Z 24007KT 7SM SCT011 BKN024 OVC029 07/07 A2988 RMK AO2 RAE27 SLP123 P0002 60004 T00670067 10078 20067 56024 
SPECI KINT 170525Z 22005KT 7SM -RA FEW018 SCT028 OVC070 07/07 A2987 RMK AO2 P0002 
METAR KINT 170454Z 22008KT 7SM -RA BKN020 BKN025 OVC029 07/06 A2990 RMK AO2 RAB24 PRESFR SLP127 P0002 T00720061 400941011 
METAR KINT 170354Z 23007KT 10SM BKN027 OVC033 07/07 A2992 RMK AO2 SLP136 T00720067 
METAR KINT 170254Z VRB05KT 10SM SCT065 07/07 A2996 RMK AO2 SLP148 60000 T00720072 58007 
METAR KINT 170154Z 20003KT 10SM FEW040 BKN060 OVC075 07/07 A2996 RMK AO2 RAB15E46 SLP150 P0000 T00720072